Tocumwal, New South Wales

11:39 PM AEDT on March 06, 2015 (GMT +1100)
Wangaratta | Change Station
CLOSE
Current Station
Airport
Location: Wangaratta,
Elevation: 502 ft
Nearby Weather Stations

Elev 502 ft 36.42 °S, 146.31 °E | Updated 39 minutes ago

Partly Cloudy
Partly Cloudy
59 °F
Feels Like 59 °F
N
9
Wind Variable Wind from WSW
Gusts mph

Today
High -- | Low -- °F
--% Chance of Precip.
Yesterday
High -- | Low -- °F
Precip. -- in
7:07 AM 7:49 PM
Waxing Gibbous, 99% visible
Pressure 29.86 in
Visibility -9999.0 miles
Clouds
Dew Point 52 °F
Humidity 77%
Rainfall 0.00 in
Snow Depth Not available.
UV Not available.
Pollen Not available.
Air Quality Not available.
Flu Activity Not available.
METAR YWGT 061200Z AUTO 24008KT //// // ////// 15/11 Q1011

More Conditions Fewer Conditions

Pressure 29.86 in
Visibility -9999.0 miles
Clouds
Dew Point 52 °F
Humidity 77%
Rainfall 0.00 in
Snow Depth Not available.
UV Not available.
Pollen Not available.
Air Quality Not available.
Flu Activity Not available.
METAR YWGT 061200Z AUTO 24008KT //// // ////// 15/11 Q1011

More Conditions Fewer Conditions

10-Day Weather Forecast

Almanac

Astronomy

Mar. 06, 2015 Rise Set
Actual Time
Civil Twilight
Nautical Twilight
Astronomical Twilight
Moon
Length of Visible Light
Length of Day
Tomorrow will be .
, % of the Moon is Illuminated

Today's Extremes

Country Highs Country Lows

Community

WunderPhotos

Upload Photos

1,803,245 photos uploaded!

WunderBlogs® & News

Nearby

Air Quality

  Air Quality AQ Index Pollutant
Not available.

Snow Depth

Station Depth Elevation

Earthquake Activity

City Distance Mag. Time & Date
Minimum magnitude displayed is 2.5.

Coastal Water Temperatures

Place Temperature

Nearby Weather Stations